Time;durP1;ratioP1;P1;durP2;ratioP2;P2;SDS_P1;SDS_P2;PMS_P1;PMS_P2;Temp;Humidity;BMP_temperature;BMP_pressure;BME280_temperature;BME280_humidity;BME280_pressure;Samples;Min_cycle;Max_cycle;Signal;HPM_P1;HPM_P2
2020/12/06 00:01:23;;;;;;;6.63;3.60;;;4.90;99.90;;;;;;5073937;28;20912;-58
2020/12/06 00:03:50;;;;;;;5.43;3.30;;;4.90;99.90;;;;;;5073627;28;20416;-58
2020/12/06 00:06:20;;;;;;;5.70;3.88;;;4.80;99.90;;;;;;5073884;28;20420;-58
2020/12/06 00:08:47;;;;;;;5.60;3.60;;;4.80;99.90;;;;;;5074051;28;20411;-58
2020/12/06 00:11:15;;;;;;;5.23;3.20;;;4.60;99.90;;;;;;5074198;28;20411;-58
2020/12/06 00:13:42;;;;;;;6.53;3.50;;;4.60;99.90;;;;;;5074553;28;20853;-58
2020/12/06 00:16:11;;;;;;;6.50;3.50;;;4.50;99.90;;;;;;5074283;28;20412;-58
2020/12/06 00:18:38;;;;;;;6.25;3.72;;;4.50;99.90;;;;;;5075009;28;20831;-58
2020/12/06 00:21:06;;;;;;;5.20;3.58;;;4.60;99.90;;;;;;5074405;28;20436;-58
2020/12/06 00:23:32;;;;;;;7.05;3.70;;;4.70;99.90;;;;;;5073685;28;20420;-58
2020/12/06 00:25:59;;;;;;;6.38;3.55;;;4.80;99.90;;;;;;5074504;28;20428;-58
2020/12/06 00:28:26;;;;;;;6.20;3.83;;;4.80;99.90;;;;;;5073792;28;20443;-58
2020/12/06 00:30:52;;;;;;;7.40;3.60;;;4.80;99.90;;;;;;5073845;28;20645;-58
2020/12/06 00:33:18;;;;;;;6.47;3.22;;;4.70;99.90;;;;;;5073657;28;20835;-58
2020/12/06 00:35:45;;;;;;;5.50;3.42;;;4.70;99.90;;;;;;5073498;28;20428;-58
2020/12/06 00:38:12;;;;;;;6.65;3.60;;;4.60;99.90;;;;;;5073993;28;20439;-58
2020/12/06 00:40:39;;;;;;;6.35;3.40;;;4.60;99.90;;;;;;5074308;28;20467;-58
2020/12/06 00:43:05;;;;;;;7.17;3.77;;;4.70;99.90;;;;;;5073673;28;20474;-57
2020/12/06 00:45:32;;;;;;;5.60;3.90;;;4.70;99.90;;;;;;5073960;28;20419;-57
2020/12/06 00:47:59;;;;;;;6.32;3.40;;;4.80;99.90;;;;;;5073312;28;20747;-57
2020/12/06 00:50:25;;;;;;;6.95;3.83;;;4.80;99.90;;;;;;5073470;28;20420;-57
2020/12/06 00:52:51;;;;;;;7.25;4.57;;;4.60;99.90;;;;;;5073468;28;20412;-57
2020/12/06 00:55:19;;;;;;;7.43;3.63;;;4.50;99.90;;;;;;5074086;28;20704;-57
2020/12/06 00:57:46;;;;;;;6.90;4.00;;;4.60;99.90;;;;;;5073848;28;20473;-58
2020/12/06 01:00:12;;;;;;;6.03;3.10;;;4.60;99.90;;;;;;5073973;28;20435;-57
2020/12/06 01:02:39;;;;;;;6.07;2.67;;;4.60;99.90;;;;;;5073073;28;20462;-57
2020/12/06 01:05:06;;;;;;;4.38;3.10;;;4.50;99.90;;;;;;5073685;28;20896;-58
2020/12/06 01:07:35;;;;;;;6.35;3.70;;;4.60;99.90;;;;;;5074193;28;20461;-57
2020/12/06 01:10:02;;;;;;;4.70;3.08;;;4.70;99.90;;;;;;5073387;28;20415;-58
2020/12/06 01:12:29;;;;;;;5.95;3.80;;;4.70;99.90;;;;;;5073532;28;20416;-58
2020/12/06 01:14:56;;;;;;;6.10;3.50;;;4.60;99.90;;;;;;5073387;28;20524;-58
2020/12/06 01:17:22;;;;;;;5.55;3.95;;;4.60;99.90;;;;;;5073782;28;20517;-58
2020/12/06 01:19:49;;;;;;;5.73;3.57;;;4.60;99.90;;;;;;5073179;28;20565;-56
2020/12/06 01:22:15;;;;;;;8.20;4.20;;;4.50;99.90;;;;;;5072280;28;20470;-58
2020/12/06 01:24:42;;;;;;;4.30;3.37;;;4.60;99.90;;;;;;5073106;28;20747;-58
2020/12/06 01:27:08;;;;;;;6.35;3.53;;;4.60;99.90;;;;;;5072540;28;20416;-58
2020/12/06 01:29:36;;;;;;;4.57;2.70;;;4.70;99.90;;;;;;5073565;28;20419;-58
2020/12/06 01:32:02;;;;;;;4.50;2.92;;;4.70;99.90;;;;;;5073186;28;20793;-58
2020/12/06 01:34:30;;;;;;;6.20;2.92;;;4.70;99.90;;;;;;5073319;28;20520;-58
2020/12/06 01:36:56;;;;;;;6.95;3.60;;;4.70;99.90;;;;;;5076452;28;20454;-58
2020/12/06 01:39:23;;;;;;;7.40;3.60;;;4.60;99.90;;;;;;5077203;28;20789;-58
2020/12/06 01:41:53;;;;;;;6.72;3.75;;;4.40;99.90;;;;;;5077024;28;20467;-57
2020/12/06 01:44:20;;;;;;;6.90;3.63;;;4.40;99.90;;;;;;5077487;28;20427;-58
2020/12/06 01:46:49;;;;;;;5.97;3.60;;;4.50;99.90;;;;;;5077049;28;20451;-58
2020/12/06 01:49:18;;;;;;;6.80;3.33;;;4.50;99.90;;;;;;5077167;28;20478;-58
2020/12/06 01:51:45;;;;;;;5.82;3.35;;;4.50;99.90;;;;;;5076830;28;20495;-58
2020/12/06 01:54:12;;;;;;;6.13;3.22;;;4.50;99.90;;;;;;5077197;28;20424;-57
2020/12/06 01:56:38;;;;;;;7.05;3.60;;;4.40;99.90;;;;;;5077307;28;20477;-58
2020/12/06 01:59:05;;;;;;;4.65;2.90;;;4.50;99.90;;;;;;5077035;28;20838;-58
2020/12/06 02:01:31;;;;;;;6.15;3.58;;;4.40;99.90;;;;;;5075261;28;20471;-58
2020/12/06 02:03:59;;;;;;;5.47;3.28;;;4.50;99.90;;;;;;5075642;28;20851;-57
2020/12/06 02:06:25;;;;;;;4.80;2.90;;;4.60;99.90;;;;;;5075230;28;20723;-58
2020/12/06 02:08:52;;;;;;;5.53;2.80;;;4.70;99.90;;;;;;5074931;28;20415;-56
2020/12/06 02:11:29;;;;;;;5.70;2.95;;;4.80;99.90;;;;;;5075905;28;20855;-58
2020/12/06 02:13:56;;;;;;;5.85;3.55;;;4.90;99.90;;;;;;5075502;28;20517;-58
2020/12/06 02:16:22;;;;;;;6.20;3.78;;;4.90;99.90;;;;;;5074075;28;20707;-58
2020/12/06 02:18:49;;;;;;;6.70;3.40;;;4.80;99.90;;;;;;5073700;28;20420;-57
2020/12/06 02:21:16;;;;;;;8.00;3.90;;;4.80;99.90;;;;;;5073832;28;20734;-58
2020/12/06 02:23:43;;;;;;;5.15;3.20;;;4.80;99.90;;;;;;5073792;28;20465;-57
2020/12/06 02:26:09;;;;;;;5.43;2.80;;;4.80;99.90;;;;;;5073561;28;20696;-58
2020/12/06 02:28:36;;;;;;;6.95;3.80;;;4.80;99.90;;;;;;5073726;28;20758;-58
2020/12/06 02:31:02;;;;;;;5.80;2.80;;;4.90;99.90;;;;;;5074480;28;20459;-58
2020/12/06 02:33:29;;;;;;;6.18;3.53;;;4.90;99.90;;;;;;5076513;28;20423;-58
2020/12/06 02:35:55;;;;;;;6.97;3.45;;;4.80;99.90;;;;;;5076501;28;20454;-58
2020/12/06 02:38:23;;;;;;;6.22;4.30;;;4.50;99.90;;;;;;5076429;28;20498;-57
2020/12/06 02:40:49;;;;;;;9.13;4.57;;;4.30;99.90;;;;;;5076559;28;20436;-57
2020/12/06 02:43:16;;;;;;;9.38;5.10;;;4.10;99.90;;;;;;5076329;28;20485;-57
2020/12/06 02:45:42;;;;;;;7.95;5.32;;;4.30;99.90;;;;;;5076021;28;20509;-58
2020/12/06 02:48:08;;;;;;;7.47;3.88;;;4.50;99.90;;;;;;5076198;28;20419;-58
2020/12/06 02:50:35;;;;;;;6.95;4.15;;;4.60;99.90;;;;;;5076490;28;20498;-58
2020/12/06 02:53:01;;;;;;;11.65;6.07;;;4.60;99.90;;;;;;5075444;28;20455;-57
2020/12/06 02:55:29;;;;;;;8.20;4.40;;;4.60;99.90;;;;;;5075678;28;20419;-58
2020/12/06 02:57:55;;;;;;;8.05;4.57;;;4.60;99.90;;;;;;5076342;28;20511;-58
2020/12/06 03:00:22;;;;;;;8.77;4.80;;;4.50;99.90;;;;;;5075857;28;20471;-58
2020/12/06 03:02:48;;;;;;;7.38;4.38;;;4.40;99.90;;;;;;5075902;28;20551;-59
2020/12/06 03:05:15;;;;;;;9.75;5.18;;;4.50;99.90;;;;;;5076106;28;20423;-59
2020/12/06 03:07:41;;;;;;;7.15;3.97;;;4.50;99.90;;;;;;5075775;28;20420;-58
2020/12/06 03:10:07;;;;;;;9.10;4.28;;;4.60;99.90;;;;;;5075730;28;20431;-58
2020/12/06 03:12:35;;;;;;;9.93;4.77;;;4.60;99.90;;;;;;5075263;28;20876;-58
2020/12/06 03:15:02;;;;;;;8.00;4.03;;;4.50;99.90;;;;;;5075929;28;20424;-58
2020/12/06 03:17:28;;;;;;;7.90;4.03;;;4.50;99.90;;;;;;5074822;28;20920;-58
2020/12/06 03:19:55;;;;;;;7.57;4.53;;;4.50;99.90;;;;;;5075736;28;20430;-56
2020/12/06 03:22:21;;;;;;;8.45;4.65;;;4.60;99.90;;;;;;5074507;28;20473;-57
2020/12/06 03:24:48;;;;;;;8.73;4.70;;;4.70;99.90;;;;;;5075237;28;20560;-57
2020/12/06 03:27:14;;;;;;;8.05;4.00;;;4.70;99.90;;;;;;5075445;28;20447;-58
2020/12/06 03:29:41;;;;;;;8.77;4.30;;;4.70;99.90;;;;;;5075204;28;20504;-59
2020/12/06 03:32:08;;;;;;;8.63;4.57;;;4.70;99.90;;;;;;5074619;28;20480;-57
2020/12/06 03:34:34;;;;;;;7.13;4.05;;;4.70;99.90;;;;;;5075356;28;20427;-58
2020/12/06 03:37:01;;;;;;;7.30;3.83;;;4.70;99.90;;;;;;5074909;28;20424;-58
2020/12/06 03:39:27;;;;;;;7.35;4.00;;;4.70;99.90;;;;;;5074828;28;20450;-58
2020/12/06 03:41:54;;;;;;;9.40;5.10;;;4.80;99.90;;;;;;5074643;28;20562;-57
2020/12/06 03:44:20;;;;;;;8.23;4.80;;;4.80;99.90;;;;;;5074873;28;20448;-58
2020/12/06 03:46:47;;;;;;;9.73;4.70;;;4.80;99.90;;;;;;5074787;28;20447;-58
2020/12/06 03:49:14;;;;;;;9.82;4.32;;;4.60;99.90;;;;;;5074924;28;20427;-57
2020/12/06 03:51:40;;;;;;;7.68;4.60;;;4.50;99.90;;;;;;5074637;28;20465;-56
2020/12/06 03:54:07;;;;;;;9.50;4.40;;;4.30;99.90;;;;;;5074845;28;20463;-57
2020/12/06 03:56:33;;;;;;;9.68;4.85;;;4.20;99.90;;;;;;5074656;28;20481;-57
2020/12/06 03:59:00;;;;;;;8.90;4.93;;;4.30;99.90;;;;;;5074456;28;20472;-58
2020/12/06 04:01:26;;;;;;;10.38;4.50;;;4.30;99.90;;;;;;5074245;28;20718;-57
2020/12/06 04:03:54;;;;;;;9.68;4.13;;;4.30;99.90;;;;;;5074339;28;20766;-57
2020/12/06 04:06:20;;;;;;;8.77;5.25;;;4.30;99.90;;;;;;5074687;28;20411;-58
2020/12/06 04:08:47;;;;;;;10.38;5.18;;;4.40;99.90;;;;;;5074133;28;20469;-57
2020/12/06 04:11:13;;;;;;;9.90;5.35;;;4.40;99.90;;;;;;5073021;28;20412;-58
2020/12/06 04:13:40;;;;;;;12.15;5.80;;;4.30;99.90;;;;;;5073055;28;20445;-57
2020/12/06 04:16:06;;;;;;;11.00;5.20;;;4.10;99.90;;;;;;5072989;28;20580;-59
2020/12/06 04:18:32;;;;;;;11.90;5.93;;;4.10;99.90;;;;;;5073235;28;20415;-59
2020/12/06 04:21:00;;;;;;;11.70;5.67;;;4.20;99.90;;;;;;5072856;28;20471;-59
2020/12/06 04:23:28;;;;;;;10.13;4.43;;;4.20;99.90;;;;;;5072174;28;20419;-59
2020/12/06 04:25:55;;;;;;;10.77;5.30;;;4.20;99.90;;;;;;5073604;28;20447;-59
2020/12/06 04:28:21;;;;;;;10.63;6.13;;;4.30;99.90;;;;;;5074019;28;20419;-59
2020/12/06 04:30:48;;;;;;;12.18;5.78;;;4.10;99.90;;;;;;5074773;28;20686;-59
2020/12/06 04:33:14;;;;;;;11.73;5.43;;;4.10;99.90;;;;;;5073640;28;20516;-59
2020/12/06 04:35:41;;;;;;;11.23;5.55;;;4.00;99.90;;;;;;5073671;28;20532;-59
2020/12/06 04:38:08;;;;;;;13.47;6.77;;;4.00;99.90;;;;;;5073341;28;20416;-59
2020/12/06 04:40:35;;;;;;;15.57;6.70;;;4.10;99.90;;;;;;5073199;28;20436;-59
2020/12/06 04:43:02;;;;;;;15.50;5.60;;;4.10;99.90;;;;;;5072878;28;20451;-59
2020/12/06 04:45:28;;;;;;;13.13;5.75;;;3.90;99.90;;;;;;5072978;28;20480;-59
2020/12/06 04:48:04;;;;;;;12.27;5.77;;;3.90;99.90;;;;;;5073141;28;21001;-59
2020/12/06 04:50:33;;;;;;;14.05;5.55;;;3.90;99.90;;;;;;5073427;28;20916;-59
2020/12/06 04:53:02;;;;;;;15.25;6.57;;;3.90;99.90;;;;;;5073265;28;20692;-59
2020/12/06 04:55:30;;;;;;;14.93;5.30;;;4.00;99.90;;;;;;5074392;28;20784;-59
2020/12/06 04:57:58;;;;;;;13.55;5.63;;;4.00;99.90;;;;;;5073983;28;20489;-59
2020/12/06 05:00:34;;;;;;;13.55;5.97;;;3.90;99.90;;;;;;5073930;28;20439;-59
2020/12/06 05:03:08;;;;;;;12.25;6.10;;;3.90;99.90;;;;;;5073825;28;20816;-59
2020/12/06 05:05:37;;;;;;;16.52;7.00;;;3.90;99.90;;;;;;5074297;28;20481;-59
2020/12/06 05:08:06;;;;;;;14.95;6.88;;;4.00;99.90;;;;;;5073866;28;20420;-59
2020/12/06 05:10:37;;;;;;;14.30;5.78;;;4.10;99.90;;;;;;5077303;28;20850;-59
2020/12/06 05:13:05;;;;;;;12.35;5.35;;;4.10;99.90;;;;;;5077450;28;20423;-59
2020/12/06 05:15:31;;;;;;;13.77;6.90;;;4.20;99.90;;;;;;5077905;28;20427;-59
2020/12/06 05:17:58;;;;;;;16.17;6.93;;;4.20;99.90;;;;;;5076863;28;20435;-57
2020/12/06 05:20:26;;;;;;;14.70;6.70;;;4.10;99.90;;;;;;5077339;28;20427;-58
2020/12/06 05:22:53;;;;;;;18.65;6.35;;;4.00;99.90;;;;;;5077628;28;20722;-57
2020/12/06 05:25:19;;;;;;;14.93;6.10;;;3.90;99.90;;;;;;5076685;28;20904;-58
2020/12/06 05:27:47;;;;;;;16.25;6.15;;;3.80;99.90;;;;;;5077836;28;20447;-57
2020/12/06 05:30:14;;;;;;;13.23;5.78;;;3.90;99.90;;;;;;5077543;28;20427;-57
2020/12/06 05:32:41;;;;;;;12.18;5.68;;;3.90;99.90;;;;;;5077400;28;20423;-57
2020/12/06 05:35:09;;;;;;;12.40;6.00;;;3.90;99.90;;;;;;5077545;28;20485;-57
2020/12/06 05:37:36;;;;;;;12.17;5.13;;;3.90;99.90;;;;;;5077168;28;20576;-57
2020/12/06 05:40:06;;;;;;;11.63;5.85;;;3.80;99.90;;;;;;5077360;28;20431;-57
2020/12/06 05:42:33;;;;;;;10.45;5.25;;;3.90;99.90;;;;;;5077026;28;20432;-57
2020/12/06 05:45:01;;;;;;;10.50;4.90;;;3.90;99.90;;;;;;5077344;28;20839;-57
2020/12/06 05:47:28;;;;;;;10.55;5.43;;;3.90;99.90;;;;;;5077296;28;20520;-57
2020/12/06 05:49:56;;;;;;;13.95;5.43;;;3.90;99.90;;;;;;5077168;28;20451;-58
2020/12/06 05:52:23;;;;;;;10.43;5.70;;;4.00;99.90;;;;;;5076966;28;20827;-58
2020/12/06 05:54:49;;;;;;;11.65;4.95;;;4.10;99.90;;;;;;5076922;28;20831;-58
2020/12/06 05:57:16;;;;;;;12.18;5.00;;;4.10;99.90;;;;;;5076012;28;20420;-57
2020/12/06 05:59:43;;;;;;;13.32;4.72;;;4.00;99.90;;;;;;5077583;28;20481;-58
2020/12/06 06:02:13;;;;;;;12.53;5.90;;;4.10;99.90;;;;;;5077176;28;20524;-58
2020/12/06 06:04:41;;;;;;;12.13;5.38;;;4.20;99.90;;;;;;5077188;28;20477;-58
2020/12/06 06:07:15;;;;;;;12.77;5.27;;;4.30;99.90;;;;;;5077103;28;20497;-58
2020/12/06 06:09:43;;;;;;;11.83;4.93;;;4.20;99.90;;;;;;5076999;28;20423;-58
2020/12/06 06:12:31;;;;;;;12.55;5.72;;;4.20;99.90;;;;;;5077025;28;20412;-57
2020/12/06 06:15:00;;;;;;;13.55;6.43;;;4.20;99.90;;;;;;5073359;28;20476;-57
2020/12/06 06:17:29;;;;;;;11.43;4.97;;;4.20;99.90;;;;;;5076394;28;20514;-57
2020/12/06 06:19:56;;;;;;;10.27;4.65;;;4.10;99.90;;;;;;5072451;28;20432;-58
2020/12/06 06:22:28;;;;;;;11.63;6.15;;;4.10;99.90;;;;;;5075879;28;20811;-58
2020/12/06 06:24:56;;;;;;;12.85;5.50;;;4.10;99.90;;;;;;5076914;28;20423;-58
2020/12/06 06:27:23;;;;;;;11.15;5.28;;;4.20;99.90;;;;;;5076786;28;20415;-58
2020/12/06 06:29:51;;;;;;;12.37;5.13;;;4.30;99.90;;;;;;5076461;28;20522;-58
2020/12/06 06:32:20;;;;;;;12.07;5.63;;;4.30;99.90;;;;;;5076084;28;20410;-58
2020/12/06 06:34:47;;;;;;;11.52;5.10;;;4.20;99.90;;;;;;5076053;28;20411;-58
2020/12/06 06:37:17;;;;;;;14.93;5.72;;;4.20;99.90;;;;;;5076088;28;20427;-57
2020/12/06 06:39:44;;;;;;;10.60;5.70;;;4.10;99.90;;;;;;5076485;28;20431;-58
2020/12/06 06:42:13;;;;;;;13.93;6.10;;;4.00;99.90;;;;;;5076206;28;20432;-57
2020/12/06 06:44:41;;;;;;;14.00;6.30;;;3.90;99.90;;;;;;5076663;28;20427;-58
2020/12/06 06:47:09;;;;;;;13.48;5.80;;;3.70;99.90;;;;;;5076112;28;20742;-58
2020/12/06 06:49:55;;;;;;;10.65;5.10;;;3.60;99.90;;;;;;5076464;28;20471;-57
2020/12/06 06:52:23;;;;;;;13.98;5.40;;;3.50;99.90;;;;;;5075613;28;20777;-58
2020/12/06 06:54:53;;;;;;;14.77;6.22;;;3.50;99.90;;;;;;5076033;28;20484;-57
2020/12/06 06:57:21;;;;;;;12.20;5.63;;;3.50;99.90;;;;;;5075246;28;20841;-58
2020/12/06 06:59:49;;;;;;;13.57;5.60;;;3.50;99.90;;;;;;5075809;28;20419;-57
2020/12/06 07:02:35;;;;;;;11.02;5.75;;;3.50;99.90;;;;;;5072800;28;20555;-58
2020/12/06 07:05:07;;;;;;;12.02;5.93;;;3.60;99.90;;;;;;5060188;28;20768;-58
2020/12/06 07:07:44;;;;;;;13.15;6.07;;;3.60;99.90;;;;;;5070353;28;20735;-57
2020/12/06 07:10:13;;;;;;;10.48;4.35;;;3.60;99.90;;;;;;5083307;28;20434;-57
2020/12/06 07:12:48;;;;;;;15.05;6.28;;;3.40;99.90;;;;;;5095389;28;20414;-58
2020/12/06 07:15:16;;;;;;;12.95;6.45;;;3.50;99.90;;;;;;5095231;28;20418;-57
2020/12/06 07:17:43;;;;;;;13.50;6.40;;;3.40;99.90;;;;;;5093187;28;20418;-58
2020/12/06 07:20:12;;;;;;;14.00;5.65;;;3.40;99.90;;;;;;5096389;28;20452;-57
2020/12/06 07:22:40;;;;;;;11.90;4.97;;;3.40;99.90;;;;;;5093286;28;20485;-58
2020/12/06 07:25:08;;;;;;;10.77;4.47;;;3.40;99.90;;;;;;5074317;28;20432;-57
2020/12/06 07:27:35;;;;;;;10.23;3.67;;;3.40;99.90;;;;;;5075135;28;20443;-58
2020/12/06 07:30:03;;;;;;;16.77;5.85;;;3.30;99.90;;;;;;5075567;28;20435;-57
2020/12/06 07:32:29;;;;;;;14.95;6.20;;;3.30;99.90;;;;;;5075206;28;20753;-58
2020/12/06 07:34:56;;;;;;;13.88;5.53;;;3.30;99.90;;;;;;5074638;28;20770;-57
2020/12/06 07:37:23;;;;;;;13.53;5.23;;;3.40;99.90;;;;;;5074265;28;20483;-57
2020/12/06 07:39:50;;;;;;;15.02;6.05;;;3.40;99.90;;;;;;5074853;28;20469;-57
2020/12/06 07:42:21;;;;;;;11.93;5.80;;;3.40;99.90;;;;;;5075226;28;20459;-57
2020/12/06 07:44:49;;;;;;;12.75;5.68;;;3.40;99.90;;;;;;5075453;28;20427;-57
2020/12/06 07:47:16;;;;;;;13.90;5.78;;;3.40;99.90;;;;;;5074988;28;20469;-55
2020/12/06 07:49:45;;;;;;;17.00;6.13;;;3.40;99.90;;;;;;5074701;28;20423;-57
2020/12/06 07:52:16;;;;;;;18.25;6.72;;;3.30;99.90;;;;;;5074743;28;20473;-57
2020/12/06 07:54:53;;;;;;;14.38;5.50;;;3.40;99.90;;;;;;5074314;28;20427;-57
2020/12/06 07:57:30;;;;;;;14.30;5.15;;;3.40;99.90;;;;;;5081309;28;20850;-57
2020/12/06 07:59:59;;;;;;;13.75;4.72;;;3.50;99.90;;;;;;5074132;28;20431;-57
2020/12/06 08:02:31;;;;;;;11.98;3.40;;;3.50;99.90;;;;;;5090200;28;20487;-58
2020/12/06 08:04:58;;;;;;;12.77;4.47;;;3.50;99.90;;;;;;5089891;28;20429;-57
2020/12/06 08:07:30;;;;;;;10.43;4.47;;;3.60;99.90;;;;;;5074603;28;20481;-56
2020/12/06 08:10:01;;;;;;;13.02;4.80;;;3.50;99.90;;;;;;5092074;28;20483;-57
2020/12/06 08:12:32;;;;;;;10.60;4.13;;;3.60;99.90;;;;;;5087870;28;20419;-56
2020/12/06 08:15:05;;;;;;;9.90;4.00;;;3.60;99.90;;;;;;5092213;28;20418;-56
2020/12/06 08:17:45;;;;;;;9.98;4.28;;;3.60;99.90;;;;;;5081498;28;20882;-57
2020/12/06 08:20:13;;;;;;;11.67;4.20;;;3.70;99.90;;;;;;5084329;28;20722;-56
2020/12/06 08:22:53;;;;;;;11.23;3.47;;;3.70;99.90;;;;;;5091126;28;20534;-57
2020/12/06 08:25:23;;;;;;;8.68;2.92;;;3.80;99.90;;;;;;5074786;28;20461;-56
2020/12/06 08:27:50;;;;;;;7.53;2.95;;;3.80;99.90;;;;;;5074014;28;20731;-57
2020/12/06 08:30:17;;;;;;;9.70;3.25;;;3.80;99.90;;;;;;5074586;28;20439;-57
2020/12/06 08:32:54;;;;;;;5.40;1.95;;;3.60;99.90;;;;;;5072683;28;20420;-58
2020/12/06 08:35:21;;;;;;;10.13;3.58;;;3.50;99.90;;;;;;5091797;28;20433;-57
2020/12/06 08:37:48;;;;;;;10.23;3.50;;;3.70;99.90;;;;;;5093204;28;20413;-58
2020/12/06 08:40:14;;;;;;;9.55;2.95;;;3.80;99.90;;;;;;5074070;28;20431;-57
2020/12/06 08:42:42;;;;;;;9.68;3.03;;;4.00;99.90;;;;;;5073320;28;20435;-57
2020/12/06 08:45:09;;;;;;;10.13;4.03;;;4.10;99.90;;;;;;5072639;28;20839;-57
2020/12/06 08:47:43;;;;;;;8.25;2.70;;;4.10;99.90;;;;;;5073416;28;20416;-57
2020/12/06 08:50:12;;;;;;;6.93;1.90;;;4.10;99.90;;;;;;5073562;28;20491;-57
2020/12/06 08:52:39;;;;;;;5.25;1.90;;;4.10;99.90;;;;;;5073877;28;20447;-57
2020/12/06 08:55:28;;;;;;;7.22;2.60;;;3.90;99.90;;;;;;5073567;28;20785;-57
2020/12/06 08:57:57;;;;;;;6.30;1.90;;;3.80;99.90;;;;;;5072846;28;20412;-57
2020/12/06 09:00:23;;;;;;;7.68;2.15;;;3.80;99.90;;;;;;5073782;28;20427;-57
2020/12/06 09:02:50;;;;;;;5.20;1.65;;;3.80;99.90;;;;;;5073675;28;20435;-57
2020/12/06 09:05:16;;;;;;;4.30;1.98;;;4.00;99.90;;;;;;5073968;28;20459;-57
2020/12/06 09:07:43;;;;;;;4.35;1.70;;;4.20;99.90;;;;;;5073494;28;20439;-58
2020/12/06 09:10:10;;;;;;;3.58;1.30;;;4.20;99.90;;;;;;5073575;28;20484;-58
2020/12/06 09:12:37;;;;;;;4.82;1.60;;;4.40;99.90;;;;;;5092483;28;20414;-58
2020/12/06 09:15:06;;;;;;;3.10;1.10;;;4.60;99.90;;;;;;5091742;28;20574;-57
2020/12/06 09:17:33;;;;;;;3.03;1.33;;;4.70;99.90;;;;;;5086392;28;20452;-57
2020/12/06 09:20:00;;;;;;;3.70;1.30;;;4.70;99.90;;;;;;5093700;28;20422;-57
2020/12/06 09:22:26;;;;;;;4.43;1.75;;;4.60;99.90;;;;;;5088227;28;20780;-57
2020/12/06 09:24:53;;;;;;;3.50;1.20;;;4.40;99.90;;;;;;5074134;28;20488;-57
2020/12/06 09:27:20;;;;;;;4.30;1.48;;;4.30;99.90;;;;;;5084229;28;20428;-57
2020/12/06 09:29:46;;;;;;;3.60;1.20;;;4.40;99.90;;;;;;5080976;28;20928;-58
2020/12/06 09:32:14;;;;;;;3.20;1.10;;;4.60;99.90;;;;;;5090410;28;20474;-58
2020/12/06 09:34:40;;;;;;;3.00;1.20;;;4.80;99.90;;;;;;5090118;28;20430;-58
2020/12/06 09:37:08;;;;;;;3.22;1.30;;;4.80;99.90;;;;;;5082984;28;20434;-57
2020/12/06 09:39:34;;;;;;;3.70;1.20;;;4.70;99.90;;;;;;5085542;28;20429;-57
2020/12/06 09:42:01;;;;;;;3.17;1.10;;;4.60;99.90;;;;;;5088409;28;20422;-58
2020/12/06 09:44:27;;;;;;;3.90;1.20;;;4.60;99.90;;;;;;5083565;28;20430;-57
2020/12/06 09:46:54;;;;;;;2.85;1.20;;;4.60;99.90;;;;;;5073413;28;20481;-58
2020/12/06 09:49:21;;;;;;;2.45;1.10;;;4.70;99.90;;;;;;5071704;28;20716;-57
2020/12/06 09:51:47;;;;;;;4.03;1.20;;;4.80;99.90;;;;;;5089571;28;20449;-58
2020/12/06 09:54:14;;;;;;;3.50;1.15;;;4.80;99.90;;;;;;5087110;28;20834;-55
2020/12/06 09:56:40;;;;;;;2.55;1.00;;;4.90;99.90;;;;;;5074629;28;20436;-57
2020/12/06 09:59:07;;;;;;;3.70;1.17;;;4.90;99.90;;;;;;5076271;28;20455;-57
2020/12/06 10:01:33;;;;;;;3.40;1.20;;;5.00;99.90;;;;;;5087104;28;20523;-57
2020/12/06 10:04:00;;;;;;;2.92;1.30;;;5.10;99.90;;;;;;5093797;28;20469;-57
2020/12/06 10:06:27;;;;;;;4.28;1.20;;;5.00;99.90;;;;;;5085718;28;20778;-57
2020/12/06 10:08:55;;;;;;;3.38;1.10;;;4.90;99.90;;;;;;5076512;28;20429;-58
2020/12/06 10:11:23;;;;;;;4.05;1.27;;;4.90;99.90;;;;;;5078679;28;20522;-57
2020/12/06 10:13:50;;;;;;;5.03;1.90;;;4.90;99.90;;;;;;5075506;28;20778;-57
2020/12/06 10:16:17;;;;;;;4.90;1.45;;;5.10;99.90;;;;;;5076183;28;20480;-58
2020/12/06 10:18:43;;;;;;;2.70;1.20;;;5.20;99.90;;;;;;5090540;28;20488;-57
2020/12/06 10:21:11;;;;;;;4.13;1.15;;;5.30;99.90;;;;;;5085135;28;20913;-58
2020/12/06 10:23:39;;;;;;;2.15;0.90;;;5.40;99.90;;;;;;5093392;28;20694;-57
2020/12/06 10:26:05;;;;;;;3.85;1.23;;;5.40;99.90;;;;;;5092820;28;20510;-58
2020/12/06 10:28:32;;;;;;;3.50;1.23;;;5.40;99.90;;;;;;5090353;28;20552;-57
2020/12/06 10:30:58;;;;;;;2.55;1.10;;;5.20;99.90;;;;;;5094302;28;20486;-57
2020/12/06 10:33:25;;;;;;;2.53;1.10;;;5.20;99.90;;;;;;5080411;28;20432;-57
2020/12/06 10:35:51;;;;;;;2.78;1.00;;;5.20;99.90;;;;;;5079356;28;20490;-57
2020/12/06 10:38:18;;;;;;;2.50;1.15;;;5.10;99.90;;;;;;5081829;28;20431;-58
2020/12/06 10:40:45;;;;;;;2.60;1.20;;;5.20;99.90;;;;;;5077744;28;20439;-58
2020/12/06 10:43:12;;;;;;;2.53;1.27;;;5.20;99.90;;;;;;5076840;28;20735;-57
2020/12/06 10:45:39;;;;;;;3.00;1.10;;;5.20;99.90;;;;;;5080553;28;20512;-57
2020/12/06 10:48:05;;;;;;;2.05;1.08;;;5.20;99.90;;;;;;5081180;28;20463;-58
2020/12/06 10:50:32;;;;;;;2.08;1.10;;;5.10;99.90;;;;;;5090138;28;21082;-58
2020/12/06 10:52:59;;;;;;;3.08;1.30;;;5.10;99.90;;;;;;5083720;28;20729;-57
2020/12/06 10:55:25;;;;;;;3.03;1.00;;;5.10;99.90;;;;;;5092845;28;20429;-57
2020/12/06 10:57:53;;;;;;;1.70;0.80;;;5.20;99.90;;;;;;5094184;28;20848;-58
2020/12/06 11:00:20;;;;;;;2.40;1.00;;;5.20;99.90;;;;;;5077759;28;20493;-58
2020/12/06 11:02:47;;;;;;;3.67;1.10;;;5.20;99.90;;;;;;5074538;28;20428;-52
2020/12/06 11:05:13;;;;;;;2.70;1.00;;;5.10;99.90;;;;;;5077078;28;20431;-49
2020/12/06 11:07:40;;;;;;;2.72;1.20;;;5.00;99.90;;;;;;5077963;28;20423;-49
2020/12/06 11:10:06;;;;;;;3.13;1.00;;;4.90;99.90;;;;;;5086536;28;20457;-49
2020/12/06 11:12:33;;;;;;;2.88;1.10;;;5.10;99.90;;;;;;5087101;28;20426;-50
2020/12/06 11:15:00;;;;;;;2.40;1.10;;;5.20;99.90;;;;;;5074725;28;20424;-49
2020/12/06 11:17:30;;;;;;;2.63;1.20;;;5.30;99.90;;;;;;5076895;28;20422;-52
2020/12/06 11:19:57;;;;;;;1.80;0.85;;;5.40;99.90;;;;;;5077948;28;20484;-51
2020/12/06 11:22:24;;;;;;;1.90;1.10;;;5.50;99.90;;;;;;5093088;28;20505;-49
2020/12/06 11:24:51;;;;;;;2.60;1.20;;;5.50;99.90;;;;;;5081305;28;20787;-51
2020/12/06 11:27:17;;;;;;;1.40;0.90;;;5.60;99.90;;;;;;5085820;28;20432;-51
2020/12/06 11:29:43;;;;;;;2.22;1.00;;;5.60;99.90;;;;;;5085172;28;20440;-53
2020/12/06 11:32:11;;;;;;;1.60;0.95;;;5.60;99.90;;;;;;5089182;28;20449;-51
2020/12/06 11:34:38;;;;;;;1.30;0.80;;;5.60;99.90;;;;;;5089208;28;20429;-51
2020/12/06 11:37:05;;;;;;;1.30;0.80;;;5.50;99.90;;;;;;5094860;28;20422;-52
2020/12/06 11:39:31;;;;;;;1.60;0.90;;;5.60;99.90;;;;;;5094125;28;20479;-47
2020/12/06 11:41:58;;;;;;;1.30;0.82;;;5.50;99.90;;;;;;5094105;28;20482;-49
2020/12/06 11:44:24;;;;;;;2.10;0.90;;;5.40;99.90;;;;;;5073655;28;20465;-51
2020/12/06 11:46:51;;;;;;;1.65;0.90;;;5.50;99.90;;;;;;5071574;28;20416;-53
2020/12/06 11:49:18;;;;;;;1.80;0.98;;;5.60;99.90;;;;;;5086173;28;20430;-52
2020/12/06 11:51:45;;;;;;;1.30;0.80;;;5.70;99.90;;;;;;5091988;28;20483;-53
2020/12/06 11:54:13;;;;;;;1.17;0.70;;;5.70;99.90;;;;;;5091905;28;20468;-50
2020/12/06 11:56:41;;;;;;;1.30;0.80;;;5.70;99.90;;;;;;5092363;28;20429;-52
2020/12/06 11:59:08;;;;;;;1.88;0.90;;;5.70;99.90;;;;;;5076132;28;20457;-54
2020/12/06 12:01:35;;;;;;;1.10;0.70;;;5.70;99.90;;;;;;5073191;28;20506;-51
2020/12/06 12:04:01;;;;;;;1.20;0.80;;;5.60;99.90;;;;;;5075879;28;20435;-52
2020/12/06 12:06:28;;;;;;;1.10;0.70;;;5.60;99.90;;;;;;5071960;28;20433;-50
2020/12/06 12:08:55;;;;;;;1.05;0.60;;;5.60;99.90;;;;;;5075961;28;20431;-53
2020/12/06 12:11:22;;;;;;;1.10;0.60;;;5.50;99.90;;;;;;5072154;28;20451;-52
2020/12/06 12:13:48;;;;;;;1.00;0.70;;;5.60;99.90;;;;;;5071696;28;20518;-52
2020/12/06 12:16:15;;;;;;;2.05;0.80;;;5.60;99.90;;;;;;5089314;28;20461;-52
2020/12/06 12:18:42;;;;;;;1.23;0.70;;;5.70;99.90;;;;;;5091278;28;20501;-52
2020/12/06 12:21:09;;;;;;;1.00;0.70;;;5.80;99.90;;;;;;5091184;28;20429;-54
2020/12/06 12:23:36;;;;;;;1.10;0.60;;;5.90;99.90;;;;;;5071255;28;20481;-51
2020/12/06 12:26:03;;;;;;;1.00;0.70;;;6.10;99.90;;;;;;5071185;28;20775;-52
2020/12/06 12:28:29;;;;;;;1.50;0.80;;;6.20;99.90;;;;;;5071330;28;20419;-54
2020/12/06 12:30:56;;;;;;;1.40;0.80;;;6.20;99.90;;;;;;5083901;28;20433;-53
2020/12/06 12:33:22;;;;;;;1.83;0.70;;;6.00;99.90;;;;;;5089254;28;20829;-51
2020/12/06 12:35:49;;;;;;;1.00;0.70;;;6.00;99.90;;;;;;5076101;28;20431;-49
2020/12/06 12:38:16;;;;;;;1.20;0.70;;;6.10;99.90;;;;;;5085043;28;20736;-50
2020/12/06 12:40:45;;;;;;;1.50;0.70;;;5.90;99.90;;;;;;5070993;28;20430;-51
2020/12/06 12:43:12;;;;;;;0.98;0.70;;;5.90;99.90;;;;;;5072542;28;20495;-52
2020/12/06 12:45:38;;;;;;;1.00;0.70;;;5.90;99.90;;;;;;5080998;28;20454;-50
2020/12/06 12:48:06;;;;;;;1.70;0.70;;;5.90;99.90;;;;;;5089981;28;20426;-52
2020/12/06 12:50:33;;;;;;;1.00;0.70;;;5.90;99.90;;;;;;5090979;28;20429;-50
2020/12/06 12:53:00;;;;;;;1.50;0.80;;;6.00;99.90;;;;;;5078725;28;20419;-50
2020/12/06 12:55:27;;;;;;;1.20;0.80;;;6.10;99.90;;;;;;5087722;28;20861;-53